Terminal Aerodrome Forecast
Issued by NWS

Home | Current Version | Previous Version | Text Only | Print | Product List | Glossary On
Versions: 1 2 3 4 5 6 7 8 9 10 11 12 13 14 15 16 17 18 19 20 21 22 23 24 25 26 27 28 29 30 31 32 33 34 35 36 37
000
FTUS41 KRNK 021722
TAFLWB
TAF
KLWB 021722Z 0218/0318 24006G16KT P6SM BKN035 OVC250
     FM021900 24008G19KT 5SM SHRA VCTS BKN040CB OVC080
      TEMPO 0220/0224 VRB12G25KT 1SM +TSRA BR OVC015CB
     FM030000 26007KT 4SM SHRA BR VCTS BKN018 OVC028CB
     FM030500 VRB03KT 4SM BR VCSH OVC015
     FM031500 27008KT P6SM OVC025=

USA.gov is the U.S. government's official web portal to all federal, state and local government web resources and services.